sensor_id;sensor_type;location;lat;lon;timestamp;pressure;altitude;pressure_sealevel;temperature;humidity
32747;BME280;19118;50.860;13.662;2023-04-01T00:02:34;95140.91;;;7.52;100.00
32747;BME280;19118;50.860;13.662;2023-04-01T00:07:36;95142.75;;;7.51;100.00
32747;BME280;19118;50.860;13.662;2023-04-01T00:12:37;95136.69;;;7.51;100.00
32747;BME280;19118;50.860;13.662;2023-04-01T00:17:38;95142.81;;;7.45;100.00
32747;BME280;19118;50.860;13.662;2023-04-01T00:22:38;95144.63;;;7.33;100.00
32747;BME280;19118;50.860;13.662;2023-04-01T00:27:39;95140.88;;;7.40;100.00
32747;BME280;19118;50.860;13.662;2023-04-01T00:32:39;95140.53;;;7.37;100.00
32747;BME280;19118;50.860;13.662;2023-04-01T00:37:39;95149.88;;;7.33;100.00
32747;BME280;19118;50.860;13.662;2023-04-01T00:42:40;95150.78;;;7.26;100.00
32747;BME280;19118;50.860;13.662;2023-04-01T00:47:40;95148.00;;;7.21;100.00
32747;BME280;19118;50.860;13.662;2023-04-01T00:52:40;95156.19;;;7.13;100.00
32747;BME280;19118;50.860;13.662;2023-04-01T00:57:42;95153.78;;;7.12;100.00
32747;BME280;19118;50.860;13.662;2023-04-01T01:02:45;95153.53;;;7.13;100.00
32747;BME280;19118;50.860;13.662;2023-04-01T01:08:05;95149.75;;;7.09;100.00
32747;BME280;19118;50.860;13.662;2023-04-01T01:13:18;95144.00;;;7.19;100.00
32747;BME280;19118;50.860;13.662;2023-04-01T01:18:43;95142.84;;;7.15;100.00
32747;BME280;19118;50.860;13.662;2023-04-01T01:24:12;95144.16;;;7.06;100.00
32747;BME280;19118;50.860;13.662;2023-04-01T01:34:46;95121.31;;;6.88;100.00
32747;BME280;19118;50.860;13.662;2023-04-01T01:39:55;95136.72;;;6.84;100.00
32747;BME280;19118;50.860;13.662;2023-04-01T01:44:57;95136.94;;;6.83;100.00
32747;BME280;19118;50.860;13.662;2023-04-01T01:50:00;95132.72;;;6.82;100.00
32747;BME280;19118;50.860;13.662;2023-04-01T01:55:01;95135.41;;;6.75;100.00
32747;BME280;19118;50.860;13.662;2023-04-01T02:00:11;95136.78;;;6.78;100.00
32747;BME280;19118;50.860;13.662;2023-04-01T02:05:21;95138.63;;;6.77;100.00
32747;BME280;19118;50.860;13.662;2023-04-01T02:10:25;95134.78;;;6.80;100.00
32747;BME280;19118;50.860;13.662;2023-04-01T02:15:28;95137.53;;;6.85;100.00
32747;BME280;19118;50.860;13.662;2023-04-01T02:20:31;95124.75;;;6.88;100.00
32747;BME280;19118;50.860;13.662;2023-04-01T02:25:35;95131.66;;;7.01;100.00
32747;BME280;19118;50.860;13.662;2023-04-01T02:30:38;95133.66;;;7.06;100.00
32747;BME280;19118;50.860;13.662;2023-04-01T02:35:41;95135.44;;;7.23;100.00
32747;BME280;19118;50.860;13.662;2023-04-01T02:40:47;95139.00;;;7.29;100.00
32747;BME280;19118;50.860;13.662;2023-04-01T02:45:47;95140.53;;;7.37;100.00
32747;BME280;19118;50.860;13.662;2023-04-01T02:50:48;95146.38;;;7.20;100.00
32747;BME280;19118;50.860;13.662;2023-04-01T02:55:48;95152.28;;;7.04;100.00
32747;BME280;19118;50.860;13.662;2023-04-01T03:00:50;95148.16;;;6.90;100.00
32747;BME280;19118;50.860;13.662;2023-04-01T03:05:51;95147.00;;;6.86;100.00
32747;BME280;19118;50.860;13.662;2023-04-01T03:10:53;95152.13;;;6.81;100.00
32747;BME280;19118;50.860;13.662;2023-04-01T03:15:53;95154.47;;;6.70;100.00
32747;BME280;19118;50.860;13.662;2023-04-01T03:20:54;95148.09;;;6.78;100.00
32747;BME280;19118;50.860;13.662;2023-04-01T03:25:54;95146.00;;;6.87;100.00
32747;BME280;19118;50.860;13.662;2023-04-01T03:30:55;95154.75;;;6.99;100.00
32747;BME280;19118;50.860;13.662;2023-04-01T03:35:55;95153.78;;;7.12;100.00
32747;BME280;19118;50.860;13.662;2023-04-01T03:40:55;95148.97;;;7.09;100.00
32747;BME280;19118;50.860;13.662;2023-04-01T03:45:56;95153.41;;;7.08;100.00
32747;BME280;19118;50.860;13.662;2023-04-01T03:50:58;95154.16;;;7.15;100.00
32747;BME280;19118;50.860;13.662;2023-04-01T03:56:03;95158.00;;;7.13;100.00
32747;BME280;19118;50.860;13.662;2023-04-01T04:06:17;95156.47;;;7.23;100.00
32747;BME280;19118;50.860;13.662;2023-04-01T04:11:20;95158.66;;;7.26;100.00
32747;BME280;19118;50.860;13.662;2023-04-01T04:16:21;95163.91;;;7.26;100.00
32747;BME280;19118;50.860;13.662;2023-04-01T04:21:28;95167.66;;;7.19;100.00
32747;BME280;19118;50.860;13.662;2023-04-01T04:26:29;95171.94;;;7.13;100.00
32747;BME280;19118;50.860;13.662;2023-04-01T04:31:33;95186.41;;;7.22;100.00
32747;BME280;19118;50.860;13.662;2023-04-01T04:36:34;95189.75;;;7.11;100.00
32747;BME280;19118;50.860;13.662;2023-04-01T04:41:37;95191.91;;;7.03;100.00
32747;BME280;19118;50.860;13.662;2023-04-01T04:46:38;95196.63;;;7.12;100.00
32747;BME280;19118;50.860;13.662;2023-04-01T04:51:48;95197.22;;;6.96;100.00
32747;BME280;19118;50.860;13.662;2023-04-01T04:56:54;95204.81;;;7.04;100.00
32747;BME280;19118;50.860;13.662;2023-04-01T05:01:55;95197.94;;;7.21;100.00
32747;BME280;19118;50.860;13.662;2023-04-01T05:06:56;95202.63;;;7.19;100.00
32747;BME280;19118;50.860;13.662;2023-04-01T05:11:57;95210.13;;;7.34;100.00
32747;BME280;19118;50.860;13.662;2023-04-01T05:16:59;95216.09;;;7.41;100.00
32747;BME280;19118;50.860;13.662;2023-04-01T05:22:00;95222.75;;;7.44;100.00
32747;BME280;19118;50.860;13.662;2023-04-01T05:27:00;95223.09;;;7.47;100.00
32747;BME280;19118;50.860;13.662;2023-04-01T05:32:01;95221.69;;;7.63;100.00
32747;BME280;19118;50.860;13.662;2023-04-01T05:37:02;95225.16;;;7.75;100.00
32747;BME280;19118;50.860;13.662;2023-04-01T05:42:05;95217.28;;;7.75;100.00
32747;BME280;19118;50.860;13.662;2023-04-01T05:47:06;95225.91;;;7.82;100.00
32747;BME280;19118;50.860;13.662;2023-04-01T05:52:07;95227.34;;;7.78;100.00
32747;BME280;19118;50.860;13.662;2023-04-01T05:57:09;95231.28;;;7.87;100.00
32747;BME280;19118;50.860;13.662;2023-04-01T06:02:10;95231.66;;;8.03;100.00
32747;BME280;19118;50.860;13.662;2023-04-01T06:07:16;95227.03;;;8.16;100.00
32747;BME280;19118;50.860;13.662;2023-04-01T06:12:36;95229.22;;;8.31;100.00
32747;BME280;19118;50.860;13.662;2023-04-01T06:18:02;95230.06;;;8.43;100.00
32747;BME280;19118;50.860;13.662;2023-04-01T06:40:03;95257.13;;;8.97;100.00
32747;BME280;19118;50.860;13.662;2023-04-01T06:51:01;95262.44;;;9.38;100.00
32747;BME280;19118;50.860;13.662;2023-04-01T06:56:26;95270.00;;;9.46;100.00
32747;BME280;19118;50.860;13.662;2023-04-01T07:01:42;95266.22;;;9.53;100.00
32747;BME280;19118;50.860;13.662;2023-04-01T07:06:51;95274.47;;;9.57;100.00
32747;BME280;19118;50.860;13.662;2023-04-01T07:11:56;95277.13;;;9.45;100.00
32747;BME280;19118;50.860;13.662;2023-04-01T07:17:22;95278.59;;;9.65;100.00
32747;BME280;19118;50.860;13.662;2023-04-01T07:22:41;95283.59;;;9.78;100.00
32747;BME280;19118;50.860;13.662;2023-04-01T07:28:04;95282.59;;;9.67;100.00
32747;BME280;19118;50.860;13.662;2023-04-01T07:33:14;95289.19;;;9.81;100.00
32747;BME280;19118;50.860;13.662;2023-04-01T07:49:11;95299.34;;;10.92;100.00
32747;BME280;19118;50.860;13.662;2023-04-01T08:05:28;95319.06;;;10.67;100.00
32747;BME280;19118;50.860;13.662;2023-04-01T08:10:52;95321.94;;;10.83;100.00
32747;BME280;19118;50.860;13.662;2023-04-01T08:16:38;95318.66;;;10.92;100.00
32747;BME280;19118;50.860;13.662;2023-04-01T08:21:56;95329.13;;;11.21;100.00
32747;BME280;19118;50.860;13.662;2023-04-01T08:27:00;95326.50;;;10.70;100.00
32747;BME280;19118;50.860;13.662;2023-04-01T08:37:30;95328.41;;;11.64;100.00
32747;BME280;19118;50.860;13.662;2023-04-01T08:43:06;95337.44;;;11.46;100.00
32747;BME280;19118;50.860;13.662;2023-04-01T09:04:43;95340.75;;;11.36;100.00
32747;BME280;19118;50.860;13.662;2023-04-01T09:20:19;95343.47;;;12.24;100.00
32747;BME280;19118;50.860;13.662;2023-04-01T09:41:46;95358.34;;;12.03;100.00
32747;BME280;19118;50.860;13.662;2023-04-01T09:52:26;95359.78;;;12.65;100.00
32747;BME280;19118;50.860;13.662;2023-04-01T10:09:53;95367.19;;;12.63;100.00
32747;BME280;19118;50.860;13.662;2023-04-01T10:31:20;95383.09;;;12.90;100.00
32747;BME280;19118;50.860;13.662;2023-04-01T10:36:52;95381.91;;;13.02;100.00
32747;BME280;19118;50.860;13.662;2023-04-01T10:48:12;95376.81;;;13.70;100.00
32747;BME280;19118;50.860;13.662;2023-04-01T11:16:23;95365.75;;;13.09;96.88
32747;BME280;19118;50.860;13.662;2023-04-01T11:21:46;95370.88;;;13.16;97.40
32747;BME280;19118;50.860;13.662;2023-04-01T11:32:27;95363.19;;;13.51;89.15
32747;BME280;19118;50.860;13.662;2023-04-01T11:43:34;95377.81;;;14.01;82.78
32747;BME280;19118;50.860;13.662;2023-04-01T11:49:28;95361.00;;;14.58;80.40
32747;BME280;19118;50.860;13.662;2023-04-01T12:00:03;95373.47;;;14.47;79.96
32747;BME280;19118;50.860;13.662;2023-04-01T12:10:40;95374.88;;;14.03;78.14
32747;BME280;19118;50.860;13.662;2023-04-01T12:42:36;95383.25;;;13.79;81.59
32747;BME280;19118;50.860;13.662;2023-04-01T12:47:57;95390.78;;;13.18;82.58
32747;BME280;19118;50.860;13.662;2023-04-01T12:58:56;95390.50;;;12.88;88.87
32747;BME280;19118;50.860;13.662;2023-04-01T13:04:23;95403.22;;;13.45;85.22
32747;BME280;19118;50.860;13.662;2023-04-01T13:09:34;95402.78;;;13.21;83.59
32747;BME280;19118;50.860;13.662;2023-04-01T13:14:57;95419.34;;;13.33;82.26
32747;BME280;19118;50.860;13.662;2023-04-01T13:20:15;95423.03;;;12.78;83.41
32747;BME280;19118;50.860;13.662;2023-04-01T13:25:27;95421.53;;;12.60;82.56
32747;BME280;19118;50.860;13.662;2023-04-01T13:30:54;95415.31;;;12.49;86.86
32747;BME280;19118;50.860;13.662;2023-04-01T13:46:29;95416.69;;;14.17;77.55
32747;BME280;19118;50.860;13.662;2023-04-01T14:07:51;95419.84;;;12.76;81.86
32747;BME280;19118;50.860;13.662;2023-04-01T14:13:15;95424.13;;;12.55;86.51
32747;BME280;19118;50.860;13.662;2023-04-01T14:23:53;95426.75;;;13.31;92.09
32747;BME280;19118;50.860;13.662;2023-04-01T14:29:14;95423.81;;;13.59;82.69
32747;BME280;19118;50.860;13.662;2023-04-01T14:45:12;95441.41;;;13.71;78.15
32747;BME280;19118;50.860;13.662;2023-04-01T14:50:31;95448.91;;;13.47;81.65
32747;BME280;19118;50.860;13.662;2023-04-01T15:00:47;95448.25;;;12.53;89.18
32747;BME280;19118;50.860;13.662;2023-04-01T15:05:52;95454.16;;;12.61;90.22
32747;BME280;19118;50.860;13.662;2023-04-01T15:11:29;95457.53;;;12.34;93.39
32747;BME280;19118;50.860;13.662;2023-04-01T15:17:05;95466.88;;;12.59;93.86
32747;BME280;19118;50.860;13.662;2023-04-01T15:27:51;95464.16;;;12.53;96.73
32747;BME280;19118;50.860;13.662;2023-04-01T15:33:07;95470.19;;;11.88;100.00
32747;BME280;19118;50.860;13.662;2023-04-01T15:38:34;95470.19;;;11.55;100.00
32747;BME280;19118;50.860;13.662;2023-04-01T15:43:44;95467.88;;;11.58;100.00
32747;BME280;19118;50.860;13.662;2023-04-01T15:54:19;95469.56;;;11.81;100.00
32747;BME280;19118;50.860;13.662;2023-04-01T16:05:26;95480.13;;;11.98;100.00
32747;BME280;19118;50.860;13.662;2023-04-01T16:36:55;95504.75;;;9.64;100.00
32747;BME280;19118;50.860;13.662;2023-04-01T16:47:09;95507.84;;;9.73;100.00
32747;BME280;19118;50.860;13.662;2023-04-01T16:52:15;95514.69;;;9.50;100.00
32747;BME280;19118;50.860;13.662;2023-04-01T16:57:20;95518.97;;;9.51;100.00
32747;BME280;19118;50.860;13.662;2023-04-01T17:02:28;95527.97;;;9.32;100.00
32747;BME280;19118;50.860;13.662;2023-04-01T17:23:52;95546.69;;;8.82;100.00
32747;BME280;19118;50.860;13.662;2023-04-01T17:39:38;95568.09;;;8.74;100.00
32747;BME280;19118;50.860;13.662;2023-04-01T17:50:07;95584.22;;;8.84;100.00
32747;BME280;19118;50.860;13.662;2023-04-01T17:55:28;95593.84;;;8.90;100.00
32747;BME280;19118;50.860;13.662;2023-04-01T18:00:53;95599.13;;;8.90;100.00
32747;BME280;19118;50.860;13.662;2023-04-01T18:16:34;95618.88;;;8.99;100.00
32747;BME280;19118;50.860;13.662;2023-04-01T18:21:50;95615.44;;;8.99;100.00
32747;BME280;19118;50.860;13.662;2023-04-01T18:27:17;95630.66;;;8.60;100.00
32747;BME280;19118;50.860;13.662;2023-04-01T18:32:31;95637.78;;;8.60;100.00
32747;BME280;19118;50.860;13.662;2023-04-01T18:37:40;95643.28;;;8.33;100.00
32747;BME280;19118;50.860;13.662;2023-04-01T18:53:35;95679.16;;;8.34;100.00
32747;BME280;19118;50.860;13.662;2023-04-01T18:58:52;95687.25;;;8.33;100.00
32747;BME280;19118;50.860;13.662;2023-04-01T19:04:24;95698.56;;;8.40;100.00
32747;BME280;19118;50.860;13.662;2023-04-01T19:09:42;95703.47;;;8.30;100.00
32747;BME280;19118;50.860;13.662;2023-04-01T19:20:23;95711.97;;;8.38;100.00
32747;BME280;19118;50.860;13.662;2023-04-01T19:25:38;95719.19;;;8.43;100.00
32747;BME280;19118;50.860;13.662;2023-04-01T19:30:51;95725.34;;;8.30;100.00
32747;BME280;19118;50.860;13.662;2023-04-01T19:46:46;95740.06;;;8.13;100.00
32747;BME280;19118;50.860;13.662;2023-04-01T19:52:17;95752.38;;;8.19;100.00
32747;BME280;19118;50.860;13.662;2023-04-01T19:57:42;95756.19;;;8.23;100.00
32747;BME280;19118;50.860;13.662;2023-04-01T20:08:27;95761.38;;;8.36;100.00
32747;BME280;19118;50.860;13.662;2023-04-01T20:18:54;95776.81;;;8.26;100.00
32747;BME280;19118;50.860;13.662;2023-04-01T21:17:13;95839.44;;;7.79;100.00
32747;BME280;19118;50.860;13.662;2023-04-01T21:22:49;95847.75;;;7.76;100.00
32747;BME280;19118;50.860;13.662;2023-04-01T21:28:16;95848.94;;;7.80;100.00
32747;BME280;19118;50.860;13.662;2023-04-01T21:49:45;95871.72;;;7.55;100.00
32747;BME280;19118;50.860;13.662;2023-04-01T22:00:42;95884.22;;;7.66;100.00
32747;BME280;19118;50.860;13.662;2023-04-01T22:05:55;95883.63;;;7.71;100.00
32747;BME280;19118;50.860;13.662;2023-04-01T22:17:03;95903.47;;;7.60;100.00
32747;BME280;19118;50.860;13.662;2023-04-01T22:22:33;95908.13;;;7.58;100.00
32747;BME280;19118;50.860;13.662;2023-04-01T22:32:44;95913.41;;;7.51;100.00
32747;BME280;19118;50.860;13.662;2023-04-01T22:42:57;95931.63;;;7.59;100.00
32747;BME280;19118;50.860;13.662;2023-04-01T22:48:02;95936.25;;;7.64;100.00
32747;BME280;19118;50.860;13.662;2023-04-01T23:04:15;95947.19;;;7.35;100.00
32747;BME280;19118;50.860;13.662;2023-04-01T23:09:19;95958.13;;;7.38;100.00
32747;BME280;19118;50.860;13.662;2023-04-01T23:19:29;95970.47;;;7.38;100.00
32747;BME280;19118;50.860;13.662;2023-04-01T23:24:41;95977.16;;;7.40;100.00
32747;BME280;19118;50.860;13.662;2023-04-01T23:29:45;95980.56;;;7.34;100.00
32747;BME280;19118;50.860;13.662;2023-04-01T23:34:50;95990.09;;;7.28;100.00
32747;BME280;19118;50.860;13.662;2023-04-01T23:39:54;96002.22;;;7.16;100.00
32747;BME280;19118;50.860;13.662;2023-04-01T23:45:02;96010.03;;;6.90;100.00
32747;BME280;19118;50.860;13.662;2023-04-01T23:50:07;96010.63;;;6.79;100.00
